createdAt,value
2019-06-20T00:00:25.095Z,99163.87
2019-06-20T00:02:53.009Z,99163.87
2019-06-20T00:05:20.715Z,99169.43
2019-06-20T00:07:48.610Z,99177.37
2019-06-20T00:10:16.692Z,99182.95
2019-06-20T00:12:59.228Z,99186.00
2019-06-20T00:15:13.829Z,99193.61
2019-06-20T00:17:41.781Z,99193.61
2019-06-20T00:20:09.440Z,99190.98
2019-06-20T00:22:37.150Z,99190.98
2019-06-20T00:25:05.287Z,99188.99
2019-06-20T00:27:33.381Z,99188.99
2019-06-20T00:30:00.965Z,99186.30
2019-06-20T00:32:28.679Z,99190.52
2019-06-20T00:34:56.342Z,99190.52
2019-06-20T00:37:24.617Z,99181.27
2019-06-20T00:39:52.226Z,99181.27
2019-06-20T00:42:19.864Z,99183.46
2019-06-20T00:44:48.013Z,99188.31
2019-06-20T00:47:15.675Z,99188.31
2019-06-20T00:49:43.336Z,99177.87
2019-06-20T00:52:11.614Z,99177.87
2019-06-20T00:54:39.686Z,99179.22
2019-06-20T00:57:07.334Z,99186.63
2019-06-20T00:59:34.885Z,99196.05
2019-06-20T01:02:02.690Z,99198.73
2019-06-20T01:04:30.522Z,99195.38
2019-06-20T01:06:58.322Z,99195.38
2019-06-20T01:09:25.871Z,99189.81
2019-06-20T01:11:54.023Z,99189.81
2019-06-20T01:14:21.702Z,99194.49
2019-06-20T01:16:49.468Z,99204.53
2019-06-20T01:19:17.001Z,99202.31
2019-06-20T01:21:44.853Z,99202.31
2019-06-20T01:24:12.439Z,99205.64
2019-06-20T01:26:40.142Z,99213.23
2019-06-20T01:29:07.881Z,99213.41
2019-06-20T01:31:35.824Z,99213.41
2019-06-20T01:34:03.514Z,99210.39
2019-06-20T01:36:31.269Z,99209.69
2019-06-20T01:38:59.034Z,99206.32
2019-06-20T01:41:26.638Z,99209.16
2019-06-20T01:43:54.359Z,99213.14
2019-06-20T01:46:21.875Z,99225.02
2019-06-20T01:48:49.575Z,99229.03
2019-06-20T01:51:17.490Z,99229.29
2019-06-20T01:53:45.053Z,99231.45
2019-06-20T01:56:12.964Z,99226.17
2019-06-20T01:58:40.621Z,99222.81
2019-06-20T02:01:08.394Z,99217.73
2019-06-20T02:03:35.969Z,99215.69
2019-06-20T02:06:04.433Z,99226.08
2019-06-20T02:08:32.507Z,99228.09
2019-06-20T02:11:00.172Z,99231.61
2019-06-20T02:13:28.362Z,99231.61
2019-06-20T02:15:56.421Z,99228.92
2019-06-20T02:18:24.070Z,99228.92
2019-06-20T02:20:51.875Z,99230.47
2019-06-20T02:23:19.499Z,99230.47
2019-06-20T02:25:59.771Z,99238.20
2019-06-20T02:28:27.521Z,99237.09
2019-06-20T02:30:55.170Z,99235.29
2019-06-20T02:33:22.865Z,99231.95
2019-06-20T02:35:50.920Z,99231.95
2019-06-20T02:38:18.618Z,99231.48
2019-06-20T02:40:46.440Z,99231.55
2019-06-20T02:43:14.417Z,99231.55
2019-06-20T02:45:42.078Z,99239.95
2019-06-20T02:48:09.751Z,99240.63
2019-06-20T02:50:37.515Z,99240.63
2019-06-20T02:53:05.475Z,99240.63
2019-06-20T02:55:33.435Z,99239.74
2019-06-20T02:58:01.108Z,99239.74
2019-06-20T03:00:28.863Z,99235.03
2019-06-20T03:02:57.249Z,99234.82
2019-06-20T03:05:25.107Z,99240.18
2019-06-20T03:07:52.773Z,99240.18
2019-06-20T03:10:20.351Z,99236.95
2019-06-20T03:12:47.989Z,99232.91
2019-06-20T03:15:15.664Z,99232.91
2019-06-20T03:17:43.419Z,99235.44
2019-06-20T03:20:11.460Z,99244.83
2019-06-20T03:22:39.059Z,99247.84
2019-06-20T03:25:06.633Z,99253.41
2019-06-20T03:27:34.277Z,99253.41
2019-06-20T03:30:02.255Z,99264.69
2019-06-20T03:32:29.904Z,99264.69
2019-06-20T03:34:57.458Z,99262.91
2019-06-20T03:37:25.239Z,99267.83
2019-06-20T03:39:53.181Z,99267.30
2019-06-20T03:42:20.762Z,99267.30
2019-06-20T03:45:01.713Z,99277.73
2019-06-20T03:47:18.114Z,99277.73
2019-06-20T03:49:45.894Z,99277.20
2019-06-20T03:52:13.549Z,99275.67
2019-06-20T03:54:41.631Z,99280.42
2019-06-20T03:57:09.599Z,99287.02
2019-06-20T03:59:37.368Z,99294.63
2019-06-20T04:02:05.038Z,99294.63
2019-06-20T04:04:32.734Z,99293.78
2019-06-20T04:07:00.645Z,99300.02
2019-06-20T04:09:28.349Z,99308.89
2019-06-20T04:11:55.980Z,99308.89
2019-06-20T04:14:23.596Z,99294.89
2019-06-20T04:16:51.497Z,99294.89
2019-06-20T04:19:19.133Z,99300.19
2019-06-20T04:21:46.737Z,99300.19
2019-06-20T04:24:14.423Z,99311.91
2019-06-20T04:26:42.555Z,99315.41
2019-06-20T04:29:10.334Z,99315.41
2019-06-20T04:31:38.099Z,99319.55
2019-06-20T04:34:05.754Z,99329.45
2019-06-20T04:36:33.676Z,99329.45
2019-06-20T04:39:01.447Z,99335.66
2019-06-20T04:41:29.259Z,99343.55
2019-06-20T04:43:57.235Z,99343.55
2019-06-20T04:46:30.505Z,99340.35
2019-06-20T04:48:58.079Z,99344.02
2019-06-20T04:51:25.634Z,99350.66
2019-06-20T04:53:53.511Z,99348.17
2019-06-20T04:56:21.276Z,99350.63
2019-06-20T04:58:48.985Z,99356.06
2019-06-20T05:01:16.589Z,99356.06
2019-06-20T05:03:44.979Z,99356.42
2019-06-20T05:06:12.731Z,99361.46
2019-06-20T05:08:40.504Z,99364.27
2019-06-20T05:11:08.166Z,99366.57
2019-06-20T05:13:35.813Z,99369.27
2019-06-20T05:16:03.478Z,99369.27
2019-06-20T05:18:31.569Z,99372.68
2019-06-20T05:20:59.107Z,99372.68
2019-06-20T05:23:26.867Z,99368.17
2019-06-20T05:25:54.632Z,99377.55
2019-06-20T05:28:22.635Z,99377.55
2019-06-20T05:30:50.290Z,99372.19
2019-06-20T05:33:17.851Z,99380.13
2019-06-20T05:35:45.967Z,99374.59
2019-06-20T05:38:13.619Z,99384.75
2019-06-20T05:40:41.249Z,99384.75
2019-06-20T05:43:08.917Z,99386.63
2019-06-20T05:45:36.928Z,99389.33
2019-06-20T05:48:04.762Z,99379.88
2019-06-20T05:50:32.487Z,99388.47
2019-06-20T05:53:00.143Z,99382.23
2019-06-20T05:55:28.160Z,99381.88
2019-06-20T05:57:55.773Z,99383.69
2019-06-20T06:00:23.438Z,99382.59
2019-06-20T06:02:51.110Z,99383.52
2019-06-20T06:07:58.475Z,99386.38
2019-06-20T06:10:26.035Z,99384.99
2019-06-20T06:12:53.835Z,99385.95
2019-06-20T06:15:21.808Z,99388.16
2019-06-20T06:17:49.559Z,99391.03
2019-06-20T06:20:17.112Z,99395.12
2019-06-20T06:22:46.235Z,99396.19
2019-06-20T06:25:13.803Z,99393.69
2019-06-20T06:27:41.546Z,99404.63
2019-06-20T06:30:09.312Z,99414.64
2019-06-20T06:32:40.429Z,99414.64
2019-06-20T06:35:06.789Z,99418.67
2019-06-20T06:37:34.383Z,99418.67
2019-06-20T06:40:02.510Z,99415.03
2019-06-20T06:42:30.293Z,99425.39
2019-06-20T06:44:58.038Z,99427.30
2019-06-20T06:47:25.814Z,99418.59
2019-06-20T06:49:53.648Z,99421.68
2019-06-20T06:52:21.344Z,99419.03
2019-06-20T06:54:48.891Z,99414.84
2019-06-20T06:57:16.808Z,99414.31
2019-06-20T06:59:45.044Z,99420.53
2019-06-20T07:02:12.665Z,99423.04
2019-06-20T07:04:40.370Z,99423.04
2019-06-20T07:07:07.928Z,99418.25
2019-06-20T07:09:35.577Z,99419.94
2019-06-20T07:12:03.517Z,99417.11
2019-06-20T07:14:31.256Z,99415.55
2019-06-20T07:17:00.553Z,99414.64
2019-06-20T07:19:28.282Z,99413.34
2019-06-20T07:21:56.371Z,99412.91
2019-06-20T07:24:23.979Z,99410.97
2019-06-20T07:26:51.571Z,99404.16
2019-06-20T07:29:19.205Z,99403.03
2019-06-20T07:31:47.210Z,99404.44
2019-06-20T07:34:17.458Z,99408.23
2019-06-20T07:36:44.995Z,99405.03
2019-06-20T07:39:13.033Z,99410.03
2019-06-20T07:41:40.927Z,99405.34
2019-06-20T07:44:08.496Z,99405.34
2019-06-20T07:46:36.054Z,99403.23
2019-06-20T07:49:03.669Z,99406.11
2019-06-20T07:51:31.779Z,99412.49
2019-06-20T07:53:59.645Z,99406.16
2019-06-20T07:56:27.203Z,99414.70
2019-06-20T07:58:54.802Z,99418.48
2019-06-20T08:01:22.808Z,99413.80
2019-06-20T08:03:50.498Z,99413.98
2019-06-20T08:06:18.248Z,99413.98
2019-06-20T08:08:46.081Z,99417.06
2019-06-20T08:11:14.089Z,99422.20
2019-06-20T08:13:41.663Z,99417.67
2019-06-20T08:16:09.629Z,99421.41
2019-06-20T08:18:37.541Z,99417.99
2019-06-20T08:21:05.113Z,99419.97
2019-06-20T08:23:33.287Z,99425.45
2019-06-20T08:26:00.937Z,99426.64
2019-06-20T08:28:28.544Z,99428.62
2019-06-20T08:30:57.737Z,99432.30
2019-06-20T08:33:25.673Z,99428.16
2019-06-20T08:35:53.272Z,99432.03
2019-06-20T08:38:21.361Z,99441.13
2019-06-20T08:40:48.913Z,99436.25
2019-06-20T08:43:16.560Z,99436.25
2019-06-20T08:45:44.746Z,99434.78
2019-06-20T08:48:12.403Z,99446.91
2019-06-20T08:50:39.954Z,99445.47
2019-06-20T08:53:07.872Z,99442.98
2019-06-20T08:55:35.461Z,99438.91
2019-06-20T08:58:03.425Z,99443.63
2019-06-20T09:00:31.338Z,99443.63
2019-06-20T09:03:00.193Z,99444.87
2019-06-20T09:05:30.437Z,99451.64
2019-06-20T09:07:58.613Z,99446.77
2019-06-20T09:10:26.495Z,99445.28
2019-06-20T09:12:55.110Z,99447.27
2019-06-20T09:15:22.768Z,99447.69
2019-06-20T09:17:50.331Z,99442.28
2019-06-20T09:20:18.195Z,99442.28
2019-06-20T09:22:45.748Z,99451.64
2019-06-20T09:25:13.746Z,99447.05
2019-06-20T09:27:41.584Z,99441.25
2019-06-20T09:30:09.319Z,99437.89
2019-06-20T09:32:37.202Z,99443.69
2019-06-20T09:35:05.169Z,99437.95
2019-06-20T09:37:32.714Z,99435.16
2019-06-20T09:40:00.676Z,99439.52
2019-06-20T09:42:28.506Z,99440.41
2019-06-20T09:44:56.413Z,99446.97
2019-06-20T09:47:24.026Z,99449.78
2019-06-20T09:49:55.203Z,99449.78
2019-06-20T09:52:21.777Z,99446.05
2019-06-20T09:54:50.150Z,99446.05
2019-06-20T09:57:18.250Z,99452.25
2019-06-20T09:59:59.113Z,99456.02
2019-06-20T10:02:15.016Z,99456.02
2019-06-20T10:04:43.046Z,99454.80
2019-06-20T10:07:10.592Z,99456.74
2019-06-20T10:09:38.261Z,99463.69
2019-06-20T10:12:07.361Z,99455.13
2019-06-20T10:14:35.208Z,99458.49
2019-06-20T10:17:02.879Z,99458.49
2019-06-20T10:19:30.707Z,99458.49
2019-06-20T10:21:58.447Z,99458.49
2019-06-20T10:24:26.006Z,99455.48
2019-06-20T10:26:53.887Z,99464.83
2019-06-20T10:29:21.444Z,99478.03
2019-06-20T10:31:49.079Z,99478.03
2019-06-20T10:34:16.920Z,99475.94
2019-06-20T10:36:45.404Z,99484.19
2019-06-20T10:39:13.731Z,99482.54
2019-06-20T10:41:42.002Z,99492.08
2019-06-20T10:44:09.973Z,99492.00
2019-06-20T10:46:37.514Z,99502.84
2019-06-20T10:49:05.522Z,99501.34
2019-06-20T10:51:51.970Z,99501.34
2019-06-20T10:54:20.097Z,99500.95
2019-06-20T10:56:48.858Z,99499.69
2019-06-20T10:59:16.486Z,99497.47
2019-06-20T11:01:44.445Z,99504.87
2019-06-20T11:04:12.004Z,99497.09
2019-06-20T11:06:41.321Z,99499.74
2019-06-20T11:09:08.804Z,99500.81
2019-06-20T11:11:36.341Z,99496.61
2019-06-20T11:14:04.281Z,99498.00
2019-06-20T11:16:31.902Z,99505.15
2019-06-20T11:18:59.445Z,99505.15
2019-06-20T11:21:27.352Z,99505.71
2019-06-20T11:23:54.965Z,99499.46
2019-06-20T11:26:22.609Z,99493.71
2019-06-20T11:28:50.439Z,99497.53
2019-06-20T11:31:18.059Z,99497.63
2019-06-20T11:33:45.634Z,99497.63
2019-06-20T11:36:13.454Z,99501.41
2019-06-20T11:38:42.467Z,99489.83
2019-06-20T11:41:10.102Z,99484.98
2019-06-20T11:43:38.428Z,99490.52
2019-06-20T11:46:06.006Z,99490.52
2019-06-20T11:48:34.239Z,99486.05
2019-06-20T11:51:03.023Z,99484.17
2019-06-20T11:53:32.080Z,99484.17
2019-06-20T11:56:00.292Z,99486.25
2019-06-20T11:58:28.288Z,99492.04
2019-06-20T12:01:03.640Z,99489.00
2019-06-20T12:03:25.203Z,99502.70
2019-06-20T12:05:53.003Z,99496.26
2019-06-20T12:08:20.610Z,99495.67
2019-06-20T12:10:49.387Z,99495.47
2019-06-20T12:13:17.330Z,99487.05
2019-06-20T12:15:46.573Z,99491.03
2019-06-20T12:18:14.374Z,99487.41
2019-06-20T12:20:42.900Z,99483.70
2019-06-20T12:23:10.400Z,99484.11
2019-06-20T12:25:39.290Z,99481.24
2019-06-20T12:28:07.574Z,99486.14
2019-06-20T12:30:35.161Z,99477.60
2019-06-20T12:33:02.711Z,99485.07
2019-06-20T12:35:30.627Z,99485.07
2019-06-20T12:37:58.237Z,99487.02
2019-06-20T12:40:25.789Z,99483.05
2019-06-20T12:42:53.671Z,99483.55
2019-06-20T12:45:21.292Z,99482.51
2019-06-20T12:47:49.977Z,99478.90
2019-06-20T12:50:18.010Z,99483.59
2019-06-20T12:52:47.527Z,99489.28
2019-06-20T12:55:15.352Z,99488.57
2019-06-20T12:57:44.181Z,99482.02
2019-06-20T13:00:11.931Z,99487.96
2019-06-20T13:02:40.465Z,99483.13
2019-06-20T13:05:08.997Z,99480.16
2019-06-20T13:07:38.606Z,99480.16
2019-06-20T13:10:05.788Z,99473.55
2019-06-20T13:12:33.653Z,99467.84
2019-06-20T13:15:01.231Z,99467.84
2019-06-20T13:17:28.852Z,99463.75
2019-06-20T13:19:56.689Z,99459.09
2019-06-20T13:22:24.464Z,99459.09
2019-06-20T13:24:52.040Z,99452.09
2019-06-20T13:27:19.972Z,99454.52
2019-06-20T13:29:47.502Z,99454.52
2019-06-20T13:32:15.036Z,99469.63
2019-06-20T13:34:42.954Z,99469.63
2019-06-20T13:37:10.485Z,99475.30
2019-06-20T13:39:38.761Z,99475.30
2019-06-20T13:42:07.807Z,99468.44
2019-06-20T13:44:35.393Z,99464.62
2019-06-20T13:47:02.887Z,99464.19
2019-06-20T13:49:30.614Z,99455.39
2019-06-20T13:51:58.578Z,99455.39
2019-06-20T13:54:26.121Z,99428.47
2019-06-20T13:56:54.069Z,99428.47
2019-06-20T13:59:21.715Z,99445.83
2019-06-20T14:01:49.248Z,99447.61
2019-06-20T14:04:17.172Z,99444.30
2019-06-20T14:06:45.462Z,99442.73
2019-06-20T14:09:13.029Z,99446.13
2019-06-20T14:11:41.820Z,99456.59
2019-06-20T14:14:10.503Z,99459.61
2019-06-20T14:16:38.030Z,99459.61
2019-06-20T14:19:05.929Z,99467.98
2019-06-20T14:21:33.485Z,99467.48
2019-06-20T14:24:01.073Z,99472.95
2019-06-20T14:26:28.900Z,99472.95
2019-06-20T14:28:56.496Z,99492.52
2019-06-20T14:31:24.063Z,99502.06
2019-06-20T14:33:51.927Z,99502.06
2019-06-20T14:36:19.490Z,99513.39
2019-06-20T14:38:47.364Z,99513.39
2019-06-20T14:41:14.970Z,99516.76
2019-06-20T14:43:42.990Z,99515.36
2019-06-20T14:46:12.023Z,99524.11
2019-06-20T14:48:39.640Z,99519.88
2019-06-20T14:51:07.254Z,99533.16
2019-06-20T14:53:35.575Z,99533.16
2019-06-20T14:56:03.168Z,99537.38
2019-06-20T14:58:30.810Z,99552.83
2019-06-20T15:00:58.921Z,99546.92
2019-06-20T15:03:26.652Z,99550.67
2019-06-20T15:05:54.637Z,99557.03
2019-06-20T15:08:23.123Z,99559.63
2019-06-20T15:10:51.790Z,99560.57
2019-06-20T15:13:19.471Z,99560.57
2019-06-20T15:15:47.844Z,99561.33
2019-06-20T15:18:16.749Z,99551.77
2019-06-20T15:20:45.170Z,99551.84
2019-06-20T15:23:13.841Z,99547.47
2019-06-20T15:25:41.379Z,99550.09
2019-06-20T15:28:08.938Z,99550.09
2019-06-20T15:30:36.804Z,99548.84
2019-06-20T15:33:09.927Z,99553.81
2019-06-20T15:35:33.987Z,99544.16
2019-06-20T15:38:02.085Z,99544.16
2019-06-20T15:40:29.735Z,99546.08
2019-06-20T15:42:58.776Z,99554.91
2019-06-20T15:45:27.010Z,99554.91
2019-06-20T15:47:54.575Z,99552.34
2019-06-20T15:50:22.177Z,99554.33
2019-06-20T15:52:50.215Z,99554.01
2019-06-20T15:55:18.149Z,99559.73
2019-06-20T15:57:45.685Z,99558.70
2019-06-20T16:00:13.772Z,99558.70
2019-06-20T16:02:41.379Z,99559.02
2019-06-20T16:05:08.960Z,99557.61
2019-06-20T16:07:36.944Z,99562.58
2019-06-20T16:10:04.496Z,99562.58
2019-06-20T16:12:32.104Z,99562.62
2019-06-20T16:15:00.145Z,99556.18
2019-06-20T16:17:27.765Z,99557.80
2019-06-20T16:19:55.295Z,99557.80
2019-06-20T16:22:23.300Z,99554.81
2019-06-20T16:24:51.299Z,99560.23
2019-06-20T16:27:18.835Z,99559.66
2019-06-20T16:29:46.895Z,99551.09
2019-06-20T16:32:14.458Z,99549.86
2019-06-20T16:34:42.082Z,99552.30
2019-06-20T16:37:10.733Z,99558.73
2019-06-20T16:39:38.679Z,99557.25
2019-06-20T16:42:06.280Z,99557.25
2019-06-20T16:44:34.323Z,99557.02
2019-06-20T16:47:01.869Z,99549.53
2019-06-20T16:49:29.509Z,99546.73
2019-06-20T16:51:57.563Z,99547.91
2019-06-20T16:54:25.183Z,99540.51
2019-06-20T16:56:52.726Z,99540.51
2019-06-20T16:59:20.764Z,99541.28
2019-06-20T17:01:48.365Z,99545.22
2019-06-20T17:04:15.963Z,99545.22
2019-06-20T17:06:43.996Z,99553.65
2019-06-20T17:09:11.739Z,99554.38
2019-06-20T17:11:39.379Z,99553.20
2019-06-20T17:14:07.372Z,99559.97
2019-06-20T17:16:35.132Z,99571.14
2019-06-20T17:19:02.883Z,99571.14
2019-06-20T17:21:30.694Z,99569.84
2019-06-20T17:23:58.257Z,99586.78
2019-06-20T17:26:26.344Z,99598.11
2019-06-20T17:28:54.232Z,99609.03
2019-06-20T17:31:21.877Z,99609.03
2019-06-20T17:33:57.502Z,99605.11
2019-06-20T17:36:19.097Z,99611.92
2019-06-20T17:38:46.702Z,99606.52
2019-06-20T17:41:14.277Z,99604.44
2019-06-20T17:43:42.436Z,99606.64
2019-06-20T17:46:10.101Z,99609.80
2019-06-20T17:48:37.725Z,99608.62
2019-06-20T17:51:05.886Z,99618.63
2019-06-20T17:53:33.514Z,99618.81
2019-06-20T17:56:01.145Z,99612.17
2019-06-20T17:58:29.272Z,99618.42
2019-06-20T18:00:56.827Z,99627.16
2019-06-20T18:03:24.503Z,99637.91
2019-06-20T18:05:52.566Z,99637.31
2019-06-20T18:08:20.244Z,99640.02
2019-06-20T18:10:47.902Z,99635.01
2019-06-20T18:13:15.601Z,99640.41
2019-06-20T18:15:43.315Z,99650.05
2019-06-20T18:18:11.323Z,99653.33
2019-06-20T18:20:38.956Z,99653.43
2019-06-20T18:23:06.657Z,99651.49
2019-06-20T18:25:34.671Z,99651.49
2019-06-20T18:28:02.398Z,99656.31
2019-06-20T18:30:30.002Z,99657.34
2019-06-20T18:32:58.169Z,99657.34
2019-06-20T18:35:26.348Z,99661.80
2019-06-20T18:37:54.024Z,99659.69
2019-06-20T18:40:22.396Z,99668.34
2019-06-20T18:42:50.008Z,99671.06
2019-06-20T18:45:17.822Z,99673.78
2019-06-20T18:47:45.911Z,99671.31
2019-06-20T18:50:13.570Z,99676.55
2019-06-20T18:52:51.501Z,99680.78
2019-06-20T18:55:10.984Z,99679.95
2019-06-20T18:57:38.991Z,99682.66
2019-06-20T19:00:06.677Z,99682.66
2019-06-20T19:02:34.651Z,99688.87
2019-06-20T19:05:02.187Z,99688.87
2019-06-20T19:07:29.794Z,99696.63
2019-06-20T19:09:57.640Z,99696.63
2019-06-20T19:12:25.184Z,99697.98
2019-06-20T19:14:52.794Z,99694.75
2019-06-20T19:17:21.007Z,99694.75
2019-06-20T19:19:48.668Z,99692.58
2019-06-20T19:22:17.616Z,99698.86
2019-06-20T19:24:45.488Z,99693.47
2019-06-20T19:27:13.064Z,99693.32
2019-06-20T19:29:40.775Z,99701.63
2019-06-20T19:32:08.659Z,99701.63
2019-06-20T19:34:36.208Z,99713.61
2019-06-20T19:37:03.897Z,99714.63
2019-06-20T19:39:31.913Z,99723.27
2019-06-20T19:41:59.613Z,99725.49
2019-06-20T19:44:27.226Z,99732.95
2019-06-20T19:46:55.201Z,99738.39
2019-06-20T19:49:22.857Z,99733.34
2019-06-20T19:51:50.641Z,99737.26
2019-06-20T19:54:18.575Z,99737.26
2019-06-20T19:56:46.168Z,99741.64
2019-06-20T19:59:13.619Z,99743.20
2019-06-20T20:01:41.518Z,99744.59
2019-06-20T20:04:09.055Z,99750.19
2019-06-20T20:06:36.623Z,99746.16
2019-06-20T20:09:04.738Z,99748.69
2019-06-20T20:11:32.354Z,99758.65
2019-06-20T20:13:59.901Z,99757.27
2019-06-20T20:16:27.763Z,99757.27
2019-06-20T20:18:55.277Z,99759.81
2019-06-20T20:21:22.897Z,99762.53
2019-06-20T20:23:50.437Z,99762.53
2019-06-20T20:26:18.232Z,99764.37
2019-06-20T20:28:45.874Z,99766.75
2019-06-20T20:31:13.421Z,99766.75
2019-06-20T20:33:41.060Z,99776.88
2019-06-20T20:36:21.190Z,99773.84
2019-06-20T20:38:38.214Z,99773.84
2019-06-20T20:41:05.824Z,99773.19
2019-06-20T20:43:33.461Z,99771.48
2019-06-20T20:46:01.228Z,99776.21
2019-06-20T20:48:29.017Z,99775.39
2019-06-20T20:50:56.959Z,99772.20
2019-06-20T20:53:24.848Z,99772.20
2019-06-20T20:55:52.486Z,99775.23
2019-06-20T20:58:20.575Z,99777.40
2019-06-20T21:00:48.154Z,99776.24
2019-06-20T21:03:16.416Z,99776.24
2019-06-20T21:05:51.343Z,99790.70
2019-06-20T21:08:13.868Z,99790.70
2019-06-20T21:10:41.630Z,99794.78
2019-06-20T21:13:09.516Z,99794.78
2019-06-20T21:15:37.686Z,99802.70
2019-06-20T21:18:05.352Z,99803.38
2019-06-20T21:20:33.456Z,99814.00
2019-06-20T21:23:01.273Z,99808.77
2019-06-20T21:25:32.066Z,99813.99
2019-06-20T21:27:58.347Z,99813.99
2019-06-20T21:30:26.349Z,99820.75
2019-06-20T21:32:54.475Z,99820.75
2019-06-20T21:35:22.349Z,99819.08
2019-06-20T21:37:49.874Z,99819.90
2019-06-20T21:40:17.824Z,99820.42
2019-06-20T21:42:45.401Z,99827.65
2019-06-20T21:45:13.001Z,99830.87
2019-06-20T21:47:40.762Z,99826.66
2019-06-20T21:50:08.739Z,99834.41
2019-06-20T21:52:36.345Z,99836.58
2019-06-20T21:55:04.050Z,99837.44
2019-06-20T21:57:32.084Z,99837.44
2019-06-20T21:59:59.605Z,99848.70
2019-06-20T22:02:27.287Z,99840.81
2019-06-20T22:04:54.999Z,99841.47
2019-06-20T22:07:22.921Z,99844.69
2019-06-20T22:09:50.642Z,99837.12
2019-06-20T22:12:18.241Z,99850.73
2019-06-20T22:14:45.858Z,99854.13
2019-06-20T22:17:13.395Z,99854.27
2019-06-20T22:19:41.089Z,99854.13
2019-06-20T22:22:08.948Z,99860.16
2019-06-20T22:24:36.941Z,99861.18
2019-06-20T22:27:04.546Z,99860.52
2019-06-20T22:29:32.755Z,99857.48
2019-06-20T22:32:00.523Z,99859.66
2019-06-20T22:34:28.209Z,99860.18
2019-06-20T22:36:55.842Z,99862.17
2019-06-20T22:39:23.941Z,99862.03
2019-06-20T22:41:51.700Z,99858.64
2019-06-20T22:44:19.415Z,99858.50
2019-06-20T22:46:47.622Z,99870.41
2019-06-20T22:49:15.280Z,99870.41
2019-06-20T22:51:43.041Z,99870.37
2019-06-20T22:54:10.714Z,99870.37
2019-06-20T22:56:38.927Z,99871.70
2019-06-20T22:59:07.126Z,99876.23
2019-06-20T23:01:34.824Z,99882.42
2019-06-20T23:04:02.480Z,99878.88
2019-06-20T23:06:30.466Z,99889.28
2019-06-20T23:08:58.219Z,99891.97
2019-06-20T23:11:25.776Z,99897.66
2019-06-20T23:13:53.431Z,99896.98
2019-06-20T23:16:21.098Z,99891.61
2019-06-20T23:18:49.190Z,99895.64
2019-06-20T23:21:16.835Z,99904.38
2019-06-20T23:23:44.819Z,99896.84
2019-06-20T23:26:12.840Z,99892.09
2019-06-20T23:28:40.646Z,99892.09
2019-06-20T23:31:08.593Z,99893.11
2019-06-20T23:33:36.573Z,99895.61
2019-06-20T23:36:04.330Z,99892.92
2019-06-20T23:38:31.891Z,99898.27
2019-06-20T23:40:59.655Z,99902.30
2019-06-20T23:43:27.725Z,99908.35
2019-06-20T23:45:55.455Z,99911.00
2019-06-20T23:48:23.053Z,99907.30
2019-06-20T23:50:50.716Z,99916.86
2019-06-20T23:53:22.410Z,99910.30
2019-06-20T23:55:50.044Z,99918.70
2019-06-20T23:58:18.110Z,99918.70
